Time;durP1;ratioP1;P1;durP2;ratioP2;P2;SDS_P1;SDS_P2;PMS_P1;PMS_P2;Temp;Humidity;BMP_temperature;BMP_pressure;BME280_temperature;BME280_humidity;BME280_pressure;Samples;Min_cycle;Max_cycle;Signal;HPM_P1;HPM_P2
2022/04/03 00:01:41;;;;;;;26.57;12.60;;;;;;;;;;6281556;22;20158;-83
2022/04/03 00:04:46;;;;;;;24.83;13.00;;;;;;;;;;6264079;22;20300;-84
2022/04/03 00:07:51;;;;;;;25.93;13.60;;;;;;;;;;6263985;22;20273;-84
2022/04/03 00:10:57;;;;;;;20.67;12.27;;;;;;;;;;6264113;22;20186;-84
2022/04/03 00:14:03;;;;;;;20.90;11.17;;;;;;;;;;6263017;22;20162;-84
2022/04/03 00:17:25;;;;;;;20.53;11.80;;;;;;;;;;6260664;22;20216;-84
2022/04/03 00:20:29;;;;;;;19.93;10.80;;;;;;;;;;6263732;22;20613;-84
2022/04/03 00:23:34;;;;;;;18.60;11.50;;;;;;;;;;6263451;22;20209;-84
2022/04/03 00:26:41;;;;;;;18.63;10.13;;;;;;;;;;6262389;22;20236;-84
2022/04/03 00:29:46;;;;;;;21.43;11.27;;;;;;;;;;6263127;22;20173;-85
2022/04/03 00:32:51;;;;;;;16.87;9.93;;;;;;;;;;6263408;22;20283;-84
2022/04/03 00:35:56;;;;;;;17.93;10.07;;;;;;;;;;6261913;22;20206;-85
2022/04/03 00:39:01;;;;;;;16.73;9.73;;;;;;;;;;6263828;22;20173;-84
2022/04/03 00:42:08;;;;;;;18.20;10.20;;;;;;;;;;6280704;22;20165;-83
2022/04/03 00:45:13;;;;;;;19.80;10.83;;;;;;;;;;6262397;22;20278;-84
2022/04/03 00:48:18;;;;;;;18.30;10.17;;;;;;;;;;6260765;22;20341;-83
2022/04/03 00:51:25;;;;;;;19.83;10.13;;;;;;;;;;6280638;22;20166;-84
2022/04/03 00:54:30;;;;;;;17.20;9.90;;;;;;;;;;6262376;22;20470;-84
2022/04/03 00:57:36;;;;;;;18.20;9.77;;;;;;;;;;6279228;22;20186;-84
2022/04/03 01:00:41;;;;;;;17.87;10.13;;;;;;;;;;6262145;22;20630;-84
2022/04/03 01:03:47;;;;;;;15.80;8.90;;;;;;;;;;6261349;22;20193;-84
2022/04/03 01:06:52;;;;;;;16.20;9.83;;;;;;;;;;6281849;22;20165;-84
2022/04/03 01:09:56;;;;;;;14.87;9.30;;;;;;;;;;6281319;22;20502;-85
2022/04/03 01:13:03;;;;;;;17.97;9.60;;;;;;;;;;6261952;22;20285;-83
2022/04/03 01:16:08;;;;;;;16.90;9.27;;;;;;;;;;6261571;22;20297;-84
2022/04/03 01:19:13;;;;;;;18.50;9.70;;;;;;;;;;6262021;22;20216;-83
2022/04/03 01:22:18;;;;;;;15.77;10.07;;;;;;;;;;6280275;22;20201;-84
2022/04/03 01:25:24;;;;;;;15.47;9.47;;;;;;;;;;6261408;22;20189;-85
2022/04/03 01:28:29;;;;;;;17.57;8.67;;;;;;;;;;6279385;22;20224;-84
2022/04/03 01:31:34;;;;;;;14.83;9.07;;;;;;;;;;6279527;22;20620;-85
2022/04/03 01:34:39;;;;;;;14.17;9.10;;;;;;;;;;6261797;22;20244;-85
2022/04/03 01:37:44;;;;;;;17.03;9.40;;;;;;;;;;6279232;22;20168;-85
2022/04/03 01:40:52;;;;;;;15.40;9.03;;;;;;;;;;6278933;22;20161;-85
2022/04/03 01:43:59;;;;;;;15.23;8.80;;;;;;;;;;6279711;22;20209;-85
2022/04/03 01:47:05;;;;;;;17.70;10.03;;;;;;;;;;6279683;22;20193;-84
2022/04/03 01:50:09;;;;;;;19.47;10.33;;;;;;;;;;6262680;22;20165;-85
2022/04/03 01:53:15;;;;;;;20.77;9.53;;;;;;;;;;6261989;22;20601;-84
2022/04/03 01:56:21;;;;;;;14.20;9.03;;;;;;;;;;6279881;22;20246;-85
2022/04/03 01:59:26;;;;;;;17.63;8.80;;;;;;;;;;6280758;22;20181;-85
2022/04/03 02:02:31;;;;;;;14.03;8.80;;;;;;;;;;6263918;22;20169;-84
2022/04/03 02:05:36;;;;;;;14.43;8.80;;;;;;;;;;6261211;22;20189;-84
2022/04/03 02:08:41;;;;;;;14.40;8.37;;;;;;;;;;6262294;22;20243;-85
2022/04/03 02:11:47;;;;;;;14.23;8.77;;;;;;;;;;6267560;22;20224;-84
2022/04/03 02:14:52;;;;;;;18.70;9.17;;;;;;;;;;6284224;22;20595;-84
2022/04/03 02:17:57;;;;;;;14.07;8.50;;;;;;;;;;6289164;22;20263;-84
2022/04/03 02:21:03;;;;;;;16.73;9.07;;;;;;;;;;6262674;22;20174;-84
2022/04/03 02:24:08;;;;;;;15.13;8.80;;;;;;;;;;6261317;22;20189;-85
2022/04/03 02:27:16;;;;;;;15.10;9.07;;;;;;;;;;6279103;22;20169;-84
2022/04/03 02:30:21;;;;;;;21.63;9.43;;;;;;;;;;6280361;22;20165;-84
2022/04/03 02:33:27;;;;;;;14.20;8.33;;;;;;;;;;6281882;22;20170;-85
2022/04/03 02:36:31;;;;;;;13.83;8.33;;;;;;;;;;6262952;22;20180;-84
2022/04/03 02:39:36;;;;;;;11.90;7.97;;;;;;;;;;6279054;22;20165;-85
2022/04/03 02:42:42;;;;;;;12.93;8.40;;;;;;;;;;6279021;22;20170;-85
2022/04/03 02:45:47;;;;;;;15.77;8.93;;;;;;;;;;6280557;22;20319;-84
2022/04/03 02:48:53;;;;;;;14.67;8.60;;;;;;;;;;6279822;22;20169;-84
2022/04/03 02:51:58;;;;;;;16.10;9.47;;;;;;;;;;6279184;22;20182;-85
2022/04/03 02:55:04;;;;;;;17.47;9.73;;;;;;;;;;6279563;22;20621;-84
2022/04/03 02:58:11;;;;;;;15.77;9.63;;;;;;;;;;6280015;22;20165;-84
2022/04/03 03:01:16;;;;;;;16.60;8.93;;;;;;;;;;6279774;22;20621;-81
2022/04/03 03:04:21;;;;;;;18.93;9.27;;;;;;;;;;6262035;22;20209;-84
2022/04/03 03:07:37;;;;;;;16.93;9.43;;;;;;;;;;6279541;22;20220;-84
2022/04/03 03:10:42;;;;;;;15.37;8.97;;;;;;;;;;6262409;22;20178;-85
2022/04/03 03:13:48;;;;;;;15.17;9.50;;;;;;;;;;6279166;22;20167;-84
2022/04/03 03:16:53;;;;;;;20.13;10.70;;;;;;;;;;6277108;22;20178;-84
2022/04/03 03:19:58;;;;;;;15.77;9.37;;;;;;;;;;6261163;22;20629;-84
2022/04/03 03:23:03;;;;;;;17.50;10.03;;;;;;;;;;6260828;22;20281;-84
2022/04/03 03:26:07;;;;;;;18.03;9.73;;;;;;;;;;6259613;22;20189;-84
2022/04/03 03:29:13;;;;;;;19.30;10.20;;;;;;;;;;6259817;22;20345;-83
2022/04/03 03:32:19;;;;;;;17.37;9.87;;;;;;;;;;6278558;22;20170;-85
2022/04/03 03:35:25;;;;;;;21.20;10.50;;;;;;;;;;6260752;22;20154;-84
2022/04/03 03:38:29;;;;;;;18.77;11.80;;;;;;;;;;6264407;22;20232;-85
2022/04/03 03:41:34;;;;;;;22.33;11.10;;;;;;;;;;6280680;22;20185;-84
2022/04/03 03:44:40;;;;;;;19.67;10.90;;;;;;;;;;6261489;22;20204;-84
2022/04/03 03:47:45;;;;;;;17.33;9.83;;;;;;;;;;6262297;22;20154;-85
2022/04/03 03:50:51;;;;;;;21.93;10.50;;;;;;;;;;6261512;22;20212;-83
2022/04/03 03:53:56;;;;;;;17.17;10.70;;;;;;;;;;6262863;22;20170;-84
2022/04/03 03:57:01;;;;;;;16.00;10.70;;;;;;;;;;6260879;22;20498;-84
2022/04/03 04:00:10;;;;;;;19.70;10.20;;;;;;;;;;6261432;22;20178;-84
2022/04/03 04:03:18;;;;;;;21.73;11.37;;;;;;;;;;6281463;22;20704;-85
2022/04/03 04:06:23;;;;;;;18.40;11.37;;;;;;;;;;6261937;22;20313;-84
2022/04/03 04:09:27;;;;;;;23.70;12.00;;;;;;;;;;6261203;22;20257;-84
2022/04/03 04:12:32;;;;;;;18.90;11.30;;;;;;;;;;6261700;22;20192;-84
2022/04/03 04:15:39;;;;;;;18.37;11.63;;;;;;;;;;6279751;22;20301;-84
2022/04/03 04:18:44;;;;;;;25.67;10.77;;;;;;;;;;6261680;22;20173;-84
2022/04/03 04:21:51;;;;;;;17.37;10.77;;;;;;;;;;6280396;22;20633;-84
2022/04/03 04:24:55;;;;;;;17.73;10.97;;;;;;;;;;6261965;22;20193;-84
2022/04/03 04:28:01;;;;;;;19.77;11.50;;;;;;;;;;6262849;22;20173;-84
2022/04/03 04:31:07;;;;;;;20.23;11.10;;;;;;;;;;6262932;22;20197;-84
2022/04/03 04:34:11;;;;;;;19.20;11.70;;;;;;;;;;6280793;22;20169;-84
2022/04/03 04:37:16;;;;;;;19.57;12.10;;;;;;;;;;6263626;22;20261;-83
2022/04/03 04:40:21;;;;;;;21.73;11.73;;;;;;;;;;6263828;22;20185;-84
2022/04/03 04:43:26;;;;;;;22.53;12.30;;;;;;;;;;6264931;22;20242;-84
2022/04/03 04:46:33;;;;;;;19.70;12.20;;;;;;;;;;6262119;22;20272;-84
2022/04/03 04:49:38;;;;;;;25.60;13.10;;;;;;;;;;6285641;22;20221;-84
2022/04/03 04:52:44;;;;;;;21.87;12.23;;;;;;;;;;6262385;22;20180;-83
2022/04/03 04:55:49;;;;;;;20.17;12.30;;;;;;;;;;6261891;22;20281;-85
2022/04/03 04:58:54;;;;;;;21.37;12.33;;;;;;;;;;6263541;22;20173;-84
2022/04/03 05:02:00;;;;;;;20.37;11.27;;;;;;;;;;6262660;22;20170;-84
2022/04/03 05:05:07;;;;;;;18.00;11.43;;;;;;;;;;6262992;22;20351;-84
2022/04/03 05:08:12;;;;;;;22.37;11.50;;;;;;;;;;6263743;22;20166;-83
2022/04/03 05:11:17;;;;;;;18.53;11.20;;;;;;;;;;6280798;22;20261;-85
2022/04/03 05:14:22;;;;;;;20.17;11.37;;;;;;;;;;6262196;22;20189;-83
2022/04/03 05:17:28;;;;;;;16.37;10.70;;;;;;;;;;6263222;22;20202;-83
2022/04/03 05:20:33;;;;;;;21.67;11.97;;;;;;;;;;6263347;22;20165;-83
2022/04/03 05:23:38;;;;;;;20.10;10.50;;;;;;;;;;6261527;22;20170;-83
2022/04/03 05:26:43;;;;;;;19.43;10.57;;;;;;;;;;6279954;22;20522;-83
2022/04/03 05:29:48;;;;;;;18.67;9.97;;;;;;;;;;6263218;22;20169;-83
2022/04/03 05:32:55;;;;;;;19.07;10.20;;;;;;;;;;6280884;22;20293;-83
2022/04/03 05:36:00;;;;;;;18.97;10.97;;;;;;;;;;6262671;22;20205;-84
2022/04/03 05:39:06;;;;;;;22.57;11.07;;;;;;;;;;6263926;22;20177;-84
2022/04/03 05:42:11;;;;;;;16.73;10.77;;;;;;;;;;6262978;22;20173;-84
2022/04/03 05:45:15;;;;;;;21.87;11.03;;;;;;;;;;6262024;22;20261;-83
2022/04/03 05:48:22;;;;;;;20.47;10.77;;;;;;;;;;6262843;22;20189;-83
2022/04/03 05:51:27;;;;;;;17.53;10.17;;;;;;;;;;6263645;22;20177;-84
2022/04/03 05:54:32;;;;;;;18.23;10.73;;;;;;;;;;6262980;22;20166;-83
2022/04/03 05:57:37;;;;;;;18.80;11.67;;;;;;;;;;6261921;22;20502;-83
2022/04/03 06:00:42;;;;;;;23.07;11.23;;;;;;;;;;6259081;22;20193;-83
2022/04/03 06:03:48;;;;;;;19.60;10.97;;;;;;;;;;6261088;22;20158;-83
2022/04/03 06:06:53;;;;;;;19.90;10.87;;;;;;;;;;6279352;22;20190;-84
2022/04/03 06:09:58;;;;;;;20.97;10.87;;;;;;;;;;6261105;22;20180;-84
2022/04/03 06:13:04;;;;;;;18.33;10.47;;;;;;;;;;6260649;22;20166;-81
2022/04/03 06:16:10;;;;;;;18.47;10.40;;;;;;;;;;6261309;22;20186;-84
2022/04/03 06:19:16;;;;;;;18.60;11.70;;;;;;;;;;6261554;22;20302;-84
2022/04/03 06:22:22;;;;;;;16.53;10.37;;;;;;;;;;6263161;22;20173;-84
2022/04/03 06:25:27;;;;;;;19.73;10.97;;;;;;;;;;6260591;22;20189;-84
2022/04/03 06:28:32;;;;;;;15.93;10.07;;;;;;;;;;6261960;22;20243;-83
2022/04/03 06:31:37;;;;;;;18.10;10.07;;;;;;;;;;6262505;22;20293;-84
2022/04/03 06:34:43;;;;;;;17.40;9.50;;;;;;;;;;6261071;22;20165;-82
2022/04/03 06:37:48;;;;;;;17.10;10.83;;;;;;;;;;6260998;22;20609;-83
2022/04/03 06:40:53;;;;;;;18.33;9.67;;;;;;;;;;6262130;22;20308;-83
2022/04/03 06:43:59;;;;;;;16.17;9.20;;;;;;;;;;6262695;22;20557;-84
2022/04/03 06:47:04;;;;;;;15.60;9.40;;;;;;;;;;6261809;22;20189;-84
2022/04/03 06:50:11;;;;;;;15.23;8.90;;;;;;;;;;6260779;22;20209;-84
2022/04/03 06:53:16;;;;;;;16.47;8.20;;;;;;;;;;6279880;22;20701;-84
2022/04/03 06:56:21;;;;;;;13.40;8.13;;;;;;;;;;6278483;22;20556;-83
2022/04/03 06:59:26;;;;;;;14.93;7.80;;;;;;;;;;6278639;22;20173;-84
2022/04/03 07:02:30;;;;;;;13.00;8.10;;;;;;;;;;6261812;22;20200;-83
2022/04/03 07:05:37;;;;;;;14.43;8.00;;;;;;;;;;6280496;22;20215;-84
2022/04/03 07:08:43;;;;;;;13.20;6.93;;;;;;;;;;6280493;22;20189;-84
2022/04/03 07:11:49;;;;;;;15.57;7.97;;;;;;;;;;6265927;22;20180;-83
2022/04/03 07:14:56;;;;;;;10.27;6.70;;;;;;;;;;6265204;22;20735;-83
2022/04/03 07:18:01;;;;;;;10.03;7.03;;;;;;;;;;6286082;22;20163;-84
2022/04/03 07:21:09;;;;;;;9.57;6.17;;;;;;;;;;6268065;22;20166;-83
2022/04/03 07:24:14;;;;;;;13.83;7.60;;;;;;;;;;6285868;22;20166;-84
2022/04/03 07:27:19;;;;;;;16.53;6.73;;;;;;;;;;6263615;22;20189;-85
2022/04/03 07:30:24;;;;;;;15.20;7.30;;;;;;;;;;6266194;22;20188;-83
2022/04/03 07:33:29;;;;;;;13.97;7.23;;;;;;;;;;6265123;22;20166;-84
2022/04/03 07:36:35;;;;;;;14.47;6.33;;;;;;;;;;6283329;22;20236;-84
2022/04/03 07:39:41;;;;;;;14.93;6.03;;;;;;;;;;6266266;22;20181;-84
2022/04/03 07:42:49;;;;;;;9.67;5.83;;;;;;;;;;6283438;22;20232;-84
2022/04/03 07:45:55;;;;;;;12.17;5.90;;;;;;;;;;6265144;22;20287;-84
2022/04/03 07:49:00;;;;;;;11.47;6.47;;;;;;;;;;6267269;22;20166;-85
2022/04/03 07:52:07;;;;;;;13.20;6.13;;;;;;;;;;6282891;22;20189;-85
2022/04/03 07:55:12;;;;;;;13.67;6.00;;;;;;;;;;6282523;22;20165;-84
2022/04/03 07:58:17;;;;;;;12.83;6.80;;;;;;;;;;6265157;22;20170;-85
2022/04/03 08:01:25;;;;;;;11.30;5.90;;;;;;;;;;6281724;22;20169;-84
2022/04/03 08:04:31;;;;;;;14.43;6.50;;;;;;;;;;6283828;22;20497;-85
2022/04/03 08:07:39;;;;;;;8.87;5.93;;;;;;;;;;6282051;22;20197;-84
2022/04/03 08:10:44;;;;;;;12.23;6.40;;;;;;;;;;6283653;22;20170;-85
2022/04/03 08:13:49;;;;;;;12.23;6.80;;;;;;;;;;6285028;22;20208;-85
2022/04/03 08:16:54;;;;;;;10.40;6.20;;;;;;;;;;6265133;22;20291;-85
2022/04/03 08:19:59;;;;;;;9.10;6.30;;;;;;;;;;6285046;22;20170;-84
2022/04/03 08:23:05;;;;;;;12.73;6.00;;;;;;;;;;6264529;22;20264;-84
2022/04/03 08:26:10;;;;;;;14.67;6.17;;;;;;;;;;6264792;22;20267;-84
2022/04/03 08:29:15;;;;;;;11.10;5.57;;;;;;;;;;6266024;22;20166;-85
2022/04/03 08:32:20;;;;;;;10.63;5.77;;;;;;;;;;6264267;22;20679;-84
2022/04/03 08:35:27;;;;;;;10.03;5.60;;;;;;;;;;6263416;22;20169;-84
2022/04/03 08:38:33;;;;;;;10.37;6.00;;;;;;;;;;6283648;22;20501;-84
2022/04/03 08:41:38;;;;;;;10.63;5.93;;;;;;;;;;6265025;22;20259;-84
2022/04/03 08:44:43;;;;;;;12.07;6.10;;;;;;;;;;6282389;22;20296;-85
2022/04/03 08:47:49;;;;;;;9.60;6.27;;;;;;;;;;6265202;22;20630;-84
2022/04/03 08:50:56;;;;;;;11.80;6.27;;;;;;;;;;6266096;22;20170;-83
2022/04/03 08:54:03;;;;;;;10.37;6.37;;;;;;;;;;6283365;22;20165;-83
2022/04/03 08:57:08;;;;;;;14.17;5.73;;;;;;;;;;6283164;22;20161;-83
2022/04/03 09:00:15;;;;;;;12.50;5.37;;;;;;;;;;6284104;22;20169;-84
2022/04/03 09:03:20;;;;;;;14.30;6.27;;;;;;;;;;6283639;22;20169;-85
2022/04/03 09:06:25;;;;;;;8.60;4.83;;;;;;;;;;6265049;22;20193;-83
2022/04/03 09:09:32;;;;;;;8.03;5.10;;;;;;;;;;6282755;22;20158;-83
2022/04/03 09:12:44;;;;;;;11.33;5.93;;;;;;;;;;6266199;22;20643;-83
2022/04/03 09:15:50;;;;;;;11.60;6.40;;;;;;;;;;6282183;22;20637;-84
2022/04/03 09:18:55;;;;;;;13.67;6.27;;;;;;;;;;6281292;22;20177;-84
2022/04/03 09:22:01;;;;;;;10.73;5.70;;;;;;;;;;6281605;22;20248;-85
2022/04/03 09:25:09;;;;;;;15.73;6.43;;;;;;;;;;6281195;22;20222;-85
2022/04/03 09:28:15;;;;;;;8.93;5.60;;;;;;;;;;6281330;22;20184;-86
2022/04/03 09:31:30;;;;;;;9.33;5.50;;;;;;;;;;6265255;22;20464;-85
2022/04/03 09:34:36;;;;;;;13.07;5.60;;;;;;;;;;6267649;22;20284;-84
2022/04/03 09:37:41;;;;;;;12.23;5.37;;;;;;;;;;6264447;22;20166;-85
2022/04/03 09:40:48;;;;;;;12.43;5.93;;;;;;;;;;6264383;22;20876;-85
2022/04/03 09:43:53;;;;;;;16.80;5.07;;;;;;;;;;6280772;22;20174;-85
2022/04/03 09:47:15;;;;;;;11.27;5.30;;;;;;;;;;6263838;22;20197;-84
2022/04/03 09:50:20;;;;;;;11.83;5.50;;;;;;;;;;6264122;22;20296;-84
2022/04/03 09:53:28;;;;;;;10.63;6.00;;;;;;;;;;6281683;22;20170;-84
2022/04/03 09:56:37;;;;;;;13.67;5.83;;;;;;;;;;6283172;22;20217;-84
2022/04/03 09:59:48;;;;;;;9.10;5.17;;;;;;;;;;6286519;22;20170;-83
2022/04/03 10:02:58;;;;;;;13.67;5.10;;;;;;;;;;6265940;22;20170;-85
2022/04/03 10:06:03;;;;;;;7.77;4.30;;;;;;;;;;6284247;22;20209;-84
2022/04/03 10:09:11;;;;;;;8.77;5.30;;;;;;;;;;6264277;22;20165;-84
2022/04/03 10:12:19;;;;;;;11.30;5.50;;;;;;;;;;6264874;22;20291;-83
2022/04/03 10:15:24;;;;;;;13.03;6.30;;;;;;;;;;6282644;22;20177;-86
2022/04/03 10:18:29;;;;;;;10.70;5.43;;;;;;;;;;6283301;22;20166;-84
2022/04/03 10:21:37;;;;;;;9.13;5.57;;;;;;;;;;6283741;22;20169;-85
2022/04/03 10:24:45;;;;;;;12.43;5.37;;;;;;;;;;6285156;22;20165;-85
2022/04/03 10:27:54;;;;;;;10.80;5.43;;;;;;;;;;6264697;22;20189;-84
2022/04/03 10:31:06;;;;;;;16.80;6.03;;;;;;;;;;6283160;22;20300;-84
2022/04/03 10:34:14;;;;;;;8.30;5.70;;;;;;;;;;6284961;22;20181;-85
2022/04/03 10:37:26;;;;;;;10.03;5.73;;;;;;;;;;6265958;22;20165;-85
2022/04/03 10:40:33;;;;;;;11.03;5.13;;;;;;;;;;6283917;22;20166;-86
2022/04/03 10:43:40;;;;;;;11.50;5.83;;;;;;;;;;6287057;22;20177;-82
2022/04/03 10:47:03;;;;;;;10.67;5.90;;;;;;;;;;6265950;22;20207;-84
2022/04/03 10:50:08;;;;;;;9.60;5.53;;;;;;;;;;6288020;22;20165;-84
2022/04/03 10:53:25;;;;;;;9.20;5.43;;;;;;;;;;6288146;22;20232;-84
2022/04/03 10:56:34;;;;;;;12.47;5.57;;;;;;;;;;6271427;22;20285;-85
2022/04/03 10:59:44;;;;;;;11.60;6.00;;;;;;;;;;6271852;22;20173;-86
2022/04/03 11:02:52;;;;;;;12.10;6.27;;;;;;;;;;6287291;22;20169;-83
2022/04/03 11:05:57;;;;;;;14.60;6.90;;;;;;;;;;6288236;22;20168;-83
2022/04/03 11:09:06;;;;;;;12.33;5.80;;;;;;;;;;6271152;22;20176;-84
2022/04/03 11:12:10;;;;;;;11.30;5.93;;;;;;;;;;6268448;22;20497;-84
2022/04/03 11:15:17;;;;;;;10.57;5.93;;;;;;;;;;6286600;22;20178;-84
2022/04/03 11:18:28;;;;;;;8.63;5.57;;;;;;;;;;6269415;22;20162;-85
2022/04/03 11:21:35;;;;;;;12.60;7.23;;;;;;;;;;6268449;22;20166;-86
2022/04/03 11:24:41;;;;;;;16.37;7.77;;;;;;;;;;6268529;22;20498;-85
2022/04/03 11:27:50;;;;;;;13.67;6.83;;;;;;;;;;6277286;22;20189;-86
2022/04/03 11:30:58;;;;;;;16.13;7.43;;;;;;;;;;6290354;22;20173;-86
2022/04/03 11:34:06;;;;;;;9.13;5.30;;;;;;;;;;6288184;22;20507;-85
2022/04/03 11:37:13;;;;;;;15.93;6.63;;;;;;;;;;6286306;22;20166;-85
2022/04/03 11:40:19;;;;;;;14.67;6.33;;;;;;;;;;6286898;22;20228;-87
2022/04/03 11:43:24;;;;;;;14.23;6.47;;;;;;;;;;6268965;22;20170;-85
2022/04/03 11:46:31;;;;;;;11.70;7.30;;;;;;;;;;6285157;22;20220;-85
2022/04/03 11:49:38;;;;;;;11.83;6.33;;;;;;;;;;6267869;22;20284;-84
2022/04/03 11:52:43;;;;;;;12.40;6.53;;;;;;;;;;6284412;22;20170;-85
2022/04/03 11:55:48;;;;;;;12.40;6.27;;;;;;;;;;6286611;22;20508;-85
2022/04/03 11:58:55;;;;;;;10.77;6.10;;;;;;;;;;6265324;22;20235;-84
2022/04/03 12:02:09;;;;;;;10.73;5.80;;;;;;;;;;6283962;22;20169;-85
2022/04/03 12:05:21;;;;;;;14.73;5.63;;;;;;;;;;6283043;22;20240;-83
2022/04/03 12:08:37;;;;;;;11.43;5.40;;;;;;;;;;6285170;22;20194;-85
2022/04/03 12:11:45;;;;;;;9.37;5.70;;;;;;;;;;6282971;22;20244;-84
2022/04/03 12:14:50;;;;;;;13.03;5.57;;;;;;;;;;6264908;22;20169;-84
2022/04/03 12:18:01;;;;;;;9.90;5.60;;;;;;;;;;6285416;22;20197;-86
2022/04/03 12:21:06;;;;;;;11.70;5.73;;;;;;;;;;6268336;22;20610;-85
2022/04/03 12:24:12;;;;;;;10.47;5.73;;;;;;;;;;6282918;22;20165;-85
2022/04/03 12:27:22;;;;;;;11.00;5.73;;;;;;;;;;6263730;22;20197;-84
2022/04/03 12:30:30;;;;;;;12.13;5.30;;;;;;;;;;6282910;22;20170;-83
2022/04/03 12:33:38;;;;;;;12.13;5.33;;;;;;;;;;6285150;22;20170;-85
2022/04/03 12:36:44;;;;;;;9.20;5.57;;;;;;;;;;6281612;22;20173;-84
2022/04/03 12:40:03;;;;;;;9.77;5.50;;;;;;;;;;6283848;22;20173;-84
2022/04/03 12:43:08;;;;;;;9.50;5.37;;;;;;;;;;6284490;22;20170;-85
2022/04/03 12:46:13;;;;;;;7.93;4.93;;;;;;;;;;6282832;22;20244;-84
2022/04/03 12:49:22;;;;;;;14.60;6.07;;;;;;;;;;6284507;22;20177;-84
2022/04/03 12:52:40;;;;;;;12.50;5.40;;;;;;;;;;6285275;22;20174;-84
2022/04/03 12:55:50;;;;;;;11.60;5.10;;;;;;;;;;6266092;22;20610;-83
2022/04/03 12:58:55;;;;;;;10.30;5.13;;;;;;;;;;6283288;22;20166;-84
2022/04/03 13:02:00;;;;;;;6.87;4.37;;;;;;;;;;6283182;22;20212;-85
2022/04/03 13:05:07;;;;;;;6.57;4.10;;;;;;;;;;6283317;22;20166;-85
2022/04/03 13:08:13;;;;;;;8.40;4.77;;;;;;;;;;6283130;22;20239;-85
2022/04/03 13:11:29;;;;;;;9.57;4.83;;;;;;;;;;6265399;22;20214;-86
2022/04/03 13:14:35;;;;;;;14.30;5.33;;;;;;;;;;6283087;22;20174;-85
2022/04/03 13:17:43;;;;;;;15.70;5.57;;;;;;;;;;6282950;22;20185;-83
2022/04/03 13:20:50;;;;;;;7.83;5.10;;;;;;;;;;6283037;22;20240;-85
2022/04/03 13:23:54;;;;;;;9.07;4.70;;;;;;;;;;6285677;22;20166;-86
2022/04/03 13:27:00;;;;;;;9.93;4.80;;;;;;;;;;6283876;22;20169;-86
2022/04/03 13:30:05;;;;;;;11.07;5.40;;;;;;;;;;6265567;22;20166;-85
2022/04/03 13:33:12;;;;;;;9.00;5.33;;;;;;;;;;6285246;22;20177;-85
2022/04/03 13:36:19;;;;;;;8.87;4.80;;;;;;;;;;6265698;22;20170;-86
2022/04/03 13:39:25;;;;;;;8.33;4.67;;;;;;;;;;6285679;22;20161;-86
2022/04/03 13:42:31;;;;;;;9.00;5.13;;;;;;;;;;6285592;22;20675;-86
2022/04/03 13:48:58;;;;;;;7.50;4.83;;;;;;;;;;6283527;22;20240;-86
2022/04/03 13:52:05;;;;;;;11.90;5.40;;;;;;;;;;6282957;22;20264;-86
2022/04/03 13:55:10;;;;;;;10.27;5.37;;;;;;;;;;6282857;22;20300;-86
2022/04/03 13:58:16;;;;;;;8.13;4.70;;;;;;;;;;6264484;22;20162;-85
2022/04/03 14:01:21;;;;;;;10.33;5.13;;;;;;;;;;6283387;22;20178;-85
2022/04/03 14:04:26;;;;;;;13.77;5.27;;;;;;;;;;6266776;22;20248;-85
2022/04/03 14:07:32;;;;;;;7.23;4.33;;;;;;;;;;6281093;22;20320;-85
2022/04/03 14:10:38;;;;;;;10.00;4.57;;;;;;;;;;6264632;22;20221;-85
2022/04/03 14:13:43;;;;;;;9.97;4.77;;;;;;;;;;6266092;22;20249;-86
2022/04/03 14:16:48;;;;;;;11.90;5.40;;;;;;;;;;6282857;22;20529;-86
2022/04/03 14:19:53;;;;;;;15.43;4.90;;;;;;;;;;6265463;22;20165;-84
2022/04/03 14:23:00;;;;;;;7.60;3.70;;;;;;;;;;6283539;22;20170;-84
2022/04/03 14:26:06;;;;;;;14.53;5.07;;;;;;;;;;6264079;22;20170;-86
2022/04/03 14:29:11;;;;;;;11.73;5.30;;;;;;;;;;6266067;22;20189;-85
2022/04/03 14:32:16;;;;;;;15.10;5.40;;;;;;;;;;6265786;22;20216;-84
2022/04/03 14:35:21;;;;;;;9.50;5.67;;;;;;;;;;6264290;22;20511;-85
2022/04/03 14:38:28;;;;;;;13.50;5.70;;;;;;;;;;6264571;22;20162;-85
2022/04/03 14:41:34;;;;;;;11.70;5.70;;;;;;;;;;6281880;22;20170;-85
2022/04/03 14:44:39;;;;;;;13.60;5.73;;;;;;;;;;6266376;22;20166;-84
2022/04/03 14:47:45;;;;;;;10.43;5.63;;;;;;;;;;6283138;22;20254;-85
2022/04/03 14:50:51;;;;;;;10.10;5.40;;;;;;;;;;6266749;22;20166;-84
2022/04/03 14:53:58;;;;;;;10.07;5.70;;;;;;;;;;6266864;22;20671;-85
2022/04/03 14:57:03;;;;;;;9.83;4.80;;;;;;;;;;6283794;22;20240;-84
2022/04/03 15:00:09;;;;;;;9.20;5.20;;;;;;;;;;6283968;22;20546;-85
2022/04/03 15:03:15;;;;;;;9.27;5.50;;;;;;;;;;6283565;22;20169;-85
2022/04/03 15:06:29;;;;;;;11.63;6.10;;;;;;;;;;6265700;22;20182;-85
2022/04/03 15:09:35;;;;;;;11.70;5.33;;;;;;;;;;6280609;22;20617;-84
2022/04/03 15:12:40;;;;;;;9.00;4.27;;;;;;;;;;6263890;22;20178;-84
2022/04/03 15:15:45;;;;;;;6.50;3.73;;;;;;;;;;6262957;22;20182;-87
2022/04/03 15:18:50;;;;;;;8.47;4.07;;;;;;;;;;6263571;22;20165;-86
2022/04/03 15:21:55;;;;;;;7.23;3.37;;;;;;;;;;6263147;22;20229;-85
2022/04/03 15:25:02;;;;;;;9.00;4.03;;;;;;;;;;6263246;22;20169;-84
2022/04/03 15:28:07;;;;;;;7.43;4.00;;;;;;;;;;6281267;22;20190;-86
2022/04/03 15:31:17;;;;;;;13.90;3.97;;;;;;;;;;6263097;22;20185;-85
2022/04/03 15:34:22;;;;;;;11.43;4.30;;;;;;;;;;6265319;22;20224;-86
2022/04/03 15:37:28;;;;;;;8.40;4.20;;;;;;;;;;6265766;22;20169;-85
2022/04/03 15:40:36;;;;;;;7.13;3.87;;;;;;;;;;6265263;22;20174;-85
2022/04/03 15:43:41;;;;;;;8.00;4.10;;;;;;;;;;6284616;22;20165;-86
2022/04/03 15:46:45;;;;;;;8.00;3.67;;;;;;;;;;6283661;22;20170;-86
2022/04/03 15:49:51;;;;;;;7.20;3.87;;;;;;;;;;6285903;22;20707;-85
2022/04/03 15:52:55;;;;;;;6.27;3.40;;;;;;;;;;6269671;22;20633;-85
2022/04/03 15:56:02;;;;;;;9.90;4.17;;;;;;;;;;6286981;22;20173;-86
2022/04/03 15:59:07;;;;;;;8.80;4.37;;;;;;;;;;6287081;22;20162;-86
2022/04/03 16:02:14;;;;;;;9.67;4.40;;;;;;;;;;6285903;22;20214;-85
2022/04/03 16:05:20;;;;;;;8.33;4.10;;;;;;;;;;6266085;22;21078;-86
2022/04/03 16:08:25;;;;;;;8.97;4.23;;;;;;;;;;6266650;22;20189;-86
2022/04/03 16:11:32;;;;;;;7.63;4.57;;;;;;;;;;6266983;22;20170;-85
2022/04/03 16:14:37;;;;;;;14.97;5.23;;;;;;;;;;6285333;22;20173;-86
2022/04/03 16:17:42;;;;;;;10.07;4.27;;;;;;;;;;6284962;22;20197;-85
2022/04/03 16:20:50;;;;;;;10.30;4.43;;;;;;;;;;6284612;22;20671;-86
2022/04/03 16:23:55;;;;;;;10.53;4.60;;;;;;;;;;6285083;22;20170;-86
2022/04/03 16:27:01;;;;;;;10.43;4.67;;;;;;;;;;6265401;22;20165;-87
2022/04/03 16:30:10;;;;;;;8.87;4.73;;;;;;;;;;6266192;22;20292;-86
2022/04/03 16:33:15;;;;;;;9.17;4.73;;;;;;;;;;6286024;22;20233;-85
2022/04/03 16:36:23;;;;;;;8.23;4.60;;;;;;;;;;6268339;22;20170;-85
2022/04/03 16:39:28;;;;;;;8.30;4.03;;;;;;;;;;6266582;22;20166;-83
2022/04/03 16:42:35;;;;;;;9.10;4.77;;;;;;;;;;6284615;22;20648;-85
2022/04/03 16:45:41;;;;;;;9.93;5.03;;;;;;;;;;6282077;22;20313;-84
2022/04/03 16:48:47;;;;;;;8.83;4.50;;;;;;;;;;6283130;22;20190;-84
2022/04/03 16:51:51;;;;;;;7.83;4.30;;;;;;;;;;6283315;22;20293;-85
2022/04/03 16:54:56;;;;;;;11.50;4.20;;;;;;;;;;6283267;22;20177;-85
2022/04/03 16:58:03;;;;;;;12.33;4.90;;;;;;;;;;6285292;22;20499;-86
2022/04/03 17:01:08;;;;;;;8.20;4.33;;;;;;;;;;6284172;22;20169;-84
2022/04/03 17:04:14;;;;;;;10.87;4.53;;;;;;;;;;6287755;22;20181;-85
2022/04/03 17:07:22;;;;;;;9.47;4.37;;;;;;;;;;6263585;22;20165;-84
2022/04/03 17:10:27;;;;;;;9.30;4.83;;;;;;;;;;6271459;22;20165;-84
2022/04/03 17:13:37;;;;;;;11.47;4.93;;;;;;;;;;6265738;22;20228;-86
2022/04/03 17:16:43;;;;;;;7.87;4.87;;;;;;;;;;6282324;22;20193;-85
2022/04/03 17:19:48;;;;;;;8.00;4.40;;;;;;;;;;6281051;22;20623;-85
2022/04/03 17:22:52;;;;;;;9.10;4.70;;;;;;;;;;6263234;22;20509;-85
2022/04/03 17:25:58;;;;;;;9.00;4.90;;;;;;;;;;6265498;22;20200;-85
2022/04/03 17:29:17;;;;;;;9.77;3.97;;;;;;;;;;6284479;22;20194;-85
2022/04/03 17:32:22;;;;;;;7.73;4.43;;;;;;;;;;6281757;22;20197;-86
2022/04/03 17:35:27;;;;;;;9.73;4.70;;;;;;;;;;6282396;22;20173;-86
2022/04/03 17:38:33;;;;;;;9.77;4.60;;;;;;;;;;6282145;22;20229;-85
2022/04/03 17:41:39;;;;;;;13.47;4.80;;;;;;;;;;6281170;22;20236;-85
2022/04/03 17:44:45;;;;;;;19.00;6.37;;;;;;;;;;6281054;22;20269;-86
2022/04/03 17:47:50;;;;;;;21.27;8.53;;;;;;;;;;6262050;22;20189;-84
2022/04/03 17:50:57;;;;;;;10.97;6.30;;;;;;;;;;6263078;22;20162;-82
2022/04/03 17:54:02;;;;;;;11.47;5.33;;;;;;;;;;6265060;22;20188;-86
2022/04/03 17:57:08;;;;;;;9.20;4.43;;;;;;;;;;6263860;22;20164;-84
2022/04/03 18:00:26;;;;;;;13.87;5.47;;;;;;;;;;6283753;22;20174;-86
2022/04/03 18:03:32;;;;;;;10.50;5.43;;;;;;;;;;6266718;22;20166;-86
2022/04/03 18:06:37;;;;;;;11.40;6.53;;;;;;;;;;6265629;22;20169;-86
2022/04/03 18:09:43;;;;;;;12.07;5.37;;;;;;;;;;6283600;22;20198;-86
2022/04/03 18:12:48;;;;;;;12.40;5.17;;;;;;;;;;6284478;22;20211;-85
2022/04/03 18:15:54;;;;;;;9.67;5.00;;;;;;;;;;6284716;22;20184;-86
2022/04/03 18:19:02;;;;;;;7.53;4.30;;;;;;;;;;6284626;22;20586;-86
2022/04/03 18:22:07;;;;;;;10.00;4.57;;;;;;;;;;6284592;22;20165;-85
2022/04/03 18:25:13;;;;;;;7.53;4.33;;;;;;;;;;6265744;22;20317;-85